This is the latest recevied weather packets stored in our database for station/object DL0GY-13. If no packets are shown the sender has not sent any weather packets the latest 10 day(s).
| Time | Temp. | Humidity | Pressure | Rain* | Wind** | Luminosity | Snow |
|---|---|---|---|---|---|---|---|
| 1777901431 | 21.11° C | 60% | 1011.2 hPa | 0 mm | - | - | - |
| 1777900832 | 21.11° C | 59% | 1011.3 hPa | 0 mm | - | - | - |
| 1777899631 | 21.67° C | 57% | 1011.3 hPa | 0 mm | - | - | - |
| 1777899032 | 21.67° C | 59% | 1011.6 hPa | 0 mm | - | - | - |
| 1777898432 | 21.11° C | 59% | 1011.4 hPa | 0 mm | - | - | - |
| 1777897832 | 21.67° C | 58% | 1011.5 hPa | 0 mm | - | - | - |
| 1777897231 | 22.22° C | 57% | 1011.5 hPa | 0 mm | - | - | - |
| 1777896632 | 22.22° C | 57% | 1011.5 hPa | 0 mm | - | - | - |
| 1777896032 | 22.78° C | 57% | 1011.6 hPa | 0 mm | - | - | - |
| 1777895431 | 22.78° C | 56% | 1011.4 hPa | 0 mm | - | - | - |
| 1777894832 | 22.78° C | 56% | 1011.4 hPa | 0 mm | - | - | - |
| 1777894231 | 22.78° C | 55% | 1011.6 hPa | 0 mm | - | - | - |
| 1777893631 | 22.78° C | 54% | 1011.6 hPa | 0 mm | - | - | - |
| 1777893032 | 24.44° C | 49% | 1011.6 hPa | 0 mm | - | - | - |
| 1777892431 | 25.56° C | 48% | 1011.7 hPa | 0 mm | - | - | - |
| 1777891831 | 26.11° C | 48% | 1011.8 hPa | 0 mm | - | - | - |
| 1777891231 | 27.22° C | 46% | 1011.8 hPa | 0 mm | - | - | - |
| 1777890632 | 26.67° C | 48% | 1011.8 hPa | 0 mm | - | - | - |
| 1777890031 | 26.67° C | 46% | 1011.9 hPa | 0 mm | - | - | - |
| 1777889432 | 26.11° C | 49% | 1012.1 hPa | 0 mm | - | - | - |
| 1777888831 | 26.11° C | 47% | 1012.1 hPa | 0 mm | - | - | - |
| 1777888232 | 26.67° C | 46% | 1012 hPa | 0 mm | - | - | - |
| 1777887632 | 29.44° C | 43% | 1012 hPa | 0 mm | - | - | - |
| 1777887031 | 27.22° C | 49% | 1012.1 hPa | 0 mm | - | - | - |
| 1777886432 | 27.22° C | 49% | 1012.1 hPa | 0 mm | - | - | - |
* Rain latest hour (hover to see other rain measurements)
** Current wind speed in m/s (hover to see current wind gust speed)